sensor_id;sensor_type;location;lat;lon;timestamp;P1;durP1;ratioP1;P2;durP2;ratioP2
63016;SDS011;50274;45.640;11.756;2023-12-29T00:00:49;61.50;;;38.78;;
63016;SDS011;50274;45.640;11.756;2023-12-29T00:03:18;62.45;;;38.65;;
63016;SDS011;50274;45.640;11.756;2023-12-29T00:05:46;54.75;;;36.28;;
63016;SDS011;50274;45.640;11.756;2023-12-29T00:08:17;65.27;;;38.93;;
63016;SDS011;50274;45.640;11.756;2023-12-29T00:10:45;58.97;;;36.35;;
63016;SDS011;50274;45.640;11.756;2023-12-29T00:13:13;56.85;;;36.58;;
63016;SDS011;50274;45.640;11.756;2023-12-29T00:15:50;54.88;;;34.67;;
63016;SDS011;50274;45.640;11.756;2023-12-29T00:18:17;52.08;;;34.72;;
63016;SDS011;50274;45.640;11.756;2023-12-29T00:20:46;55.87;;;35.20;;
63016;SDS011;50274;45.640;11.756;2023-12-29T00:23:12;62.50;;;36.35;;
63016;SDS011;50274;45.640;11.756;2023-12-29T00:25:40;60.05;;;39.45;;
63016;SDS011;50274;45.640;11.756;2023-12-29T00:28:08;57.53;;;37.03;;
63016;SDS011;50274;45.640;11.756;2023-12-29T00:30:40;58.87;;;35.93;;
63016;SDS011;50274;45.640;11.756;2023-12-29T00:33:08;56.53;;;35.78;;
63016;SDS011;50274;45.640;11.756;2023-12-29T00:35:41;53.17;;;35.85;;
63016;SDS011;50274;45.640;11.756;2023-12-29T00:38:09;58.00;;;36.92;;
63016;SDS011;50274;45.640;11.756;2023-12-29T00:40:39;56.13;;;35.05;;
63016;SDS011;50274;45.640;11.756;2023-12-29T00:43:05;53.23;;;34.63;;
63016;SDS011;50274;45.640;11.756;2023-12-29T00:45:36;56.30;;;35.22;;
63016;SDS011;50274;45.640;11.756;2023-12-29T00:48:04;59.70;;;36.60;;
63016;SDS011;50274;45.640;11.756;2023-12-29T00:50:30;57.58;;;36.78;;
63016;SDS011;50274;45.640;11.756;2023-12-29T00:52:58;60.17;;;38.70;;
63016;SDS011;50274;45.640;11.756;2023-12-29T00:55:26;56.85;;;33.63;;
63016;SDS011;50274;45.640;11.756;2023-12-29T00:57:51;57.55;;;35.13;;
63016;SDS011;50274;45.640;11.756;2023-12-29T01:00:20;55.65;;;34.47;;
63016;SDS011;50274;45.640;11.756;2023-12-29T01:02:48;58.83;;;34.70;;
63016;SDS011;50274;45.640;11.756;2023-12-29T01:05:19;56.10;;;33.17;;
63016;SDS011;50274;45.640;11.756;2023-12-29T01:07:48;54.30;;;33.65;;
63016;SDS011;50274;45.640;11.756;2023-12-29T01:10:16;55.47;;;35.05;;
63016;SDS011;50274;45.640;11.756;2023-12-29T01:12:46;52.05;;;31.92;;
63016;SDS011;50274;45.640;11.756;2023-12-29T01:15:14;52.07;;;32.87;;
63016;SDS011;50274;45.640;11.756;2023-12-29T01:17:42;51.25;;;33.55;;
63016;SDS011;50274;45.640;11.756;2023-12-29T01:20:13;57.58;;;36.10;;
63016;SDS011;50274;45.640;11.756;2023-12-29T01:22:39;59.05;;;35.55;;
63016;SDS011;50274;45.640;11.756;2023-12-29T01:25:08;52.77;;;33.90;;
63016;SDS011;50274;45.640;11.756;2023-12-29T01:27:39;53.00;;;33.27;;
63016;SDS011;50274;45.640;11.756;2023-12-29T01:30:08;52.42;;;33.28;;
63016;SDS011;50274;45.640;11.756;2023-12-29T01:32:34;56.83;;;35.97;;
63016;SDS011;50274;45.640;11.756;2023-12-29T01:35:03;50.53;;;34.70;;
63016;SDS011;50274;45.640;11.756;2023-12-29T01:37:29;47.53;;;32.08;;
63016;SDS011;50274;45.640;11.756;2023-12-29T01:39:55;50.53;;;33.07;;
63016;SDS011;50274;45.640;11.756;2023-12-29T01:42:26;50.30;;;32.53;;
63016;SDS011;50274;45.640;11.756;2023-12-29T01:44:52;50.10;;;32.60;;
63016;SDS011;50274;45.640;11.756;2023-12-29T01:47:21;52.47;;;32.97;;
63016;SDS011;50274;45.640;11.756;2023-12-29T01:49:51;49.22;;;31.25;;
63016;SDS011;50274;45.640;11.756;2023-12-29T01:52:19;46.80;;;30.60;;
63016;SDS011;50274;45.640;11.756;2023-12-29T01:54:46;44.65;;;28.83;;
63016;SDS011;50274;45.640;11.756;2023-12-29T01:57:14;46.85;;;30.40;;
63016;SDS011;50274;45.640;11.756;2023-12-29T01:59:45;51.03;;;34.50;;
63016;SDS011;50274;45.640;11.756;2023-12-29T02:02:15;52.22;;;33.22;;
63016;SDS011;50274;45.640;11.756;2023-12-29T02:04:44;50.92;;;34.00;;
63016;SDS011;50274;45.640;11.756;2023-12-29T02:07:10;53.10;;;33.55;;
63016;SDS011;50274;45.640;11.756;2023-12-29T02:09:40;49.22;;;32.55;;
63016;SDS011;50274;45.640;11.756;2023-12-29T02:12:09;45.90;;;29.17;;
63016;SDS011;50274;45.640;11.756;2023-12-29T02:14:35;42.60;;;29.92;;
63016;SDS011;50274;45.640;11.756;2023-12-29T02:17:10;47.42;;;30.75;;
63016;SDS011;50274;45.640;11.756;2023-12-29T02:19:55;47.47;;;30.70;;
63016;SDS011;50274;45.640;11.756;2023-12-29T02:22:23;45.90;;;30.52;;
63016;SDS011;50274;45.640;11.756;2023-12-29T02:24:49;49.27;;;32.93;;
63016;SDS011;50274;45.640;11.756;2023-12-29T02:32:47;49.58;;;30.20;;
63016;SDS011;50274;45.640;11.756;2023-12-29T02:35:18;43.70;;;30.70;;
63016;SDS011;50274;45.640;11.756;2023-12-29T02:37:51;45.77;;;30.80;;
63016;SDS011;50274;45.640;11.756;2023-12-29T02:40:23;42.72;;;29.85;;
63016;SDS011;50274;45.640;11.756;2023-12-29T02:42:53;44.05;;;28.42;;
63016;SDS011;50274;45.640;11.756;2023-12-29T02:45:21;44.55;;;27.88;;
63016;SDS011;50274;45.640;11.756;2023-12-29T02:47:49;41.58;;;28.35;;
63016;SDS011;50274;45.640;11.756;2023-12-29T02:50:21;43.37;;;28.70;;
63016;SDS011;50274;45.640;11.756;2023-12-29T02:52:49;44.05;;;28.27;;
63016;SDS011;50274;45.640;11.756;2023-12-29T02:55:19;44.05;;;29.25;;
63016;SDS011;50274;45.640;11.756;2023-12-29T02:57:48;43.08;;;28.65;;
63016;SDS011;50274;45.640;11.756;2023-12-29T03:00:19;43.60;;;28.05;;
63016;SDS011;50274;45.640;11.756;2023-12-29T03:02:49;42.70;;;28.33;;
63016;SDS011;50274;45.640;11.756;2023-12-29T03:05:17;41.05;;;27.45;;
63016;SDS011;50274;45.640;11.756;2023-12-29T03:07:43;41.10;;;26.42;;
63016;SDS011;50274;45.640;11.756;2023-12-29T03:10:11;43.80;;;27.75;;
63016;SDS011;50274;45.640;11.756;2023-12-29T03:12:42;38.83;;;27.17;;
63016;SDS011;50274;45.640;11.756;2023-12-29T03:15:08;39.13;;;26.85;;
63016;SDS011;50274;45.640;11.756;2023-12-29T03:17:34;41.83;;;26.95;;
63016;SDS011;50274;45.640;11.756;2023-12-29T03:20:09;43.30;;;27.75;;
63016;SDS011;50274;45.640;11.756;2023-12-29T03:22:49;42.13;;;26.13;;
63016;SDS011;50274;45.640;11.756;2023-12-29T03:25:26;40.77;;;27.07;;
63016;SDS011;50274;45.640;11.756;2023-12-29T03:27:54;41.80;;;26.98;;
63016;SDS011;50274;45.640;11.756;2023-12-29T03:30:20;37.13;;;23.67;;
63016;SDS011;50274;45.640;11.756;2023-12-29T03:32:48;42.13;;;26.80;;
63016;SDS011;50274;45.640;11.756;2023-12-29T03:35:17;41.57;;;25.80;;
63016;SDS011;50274;45.640;11.756;2023-12-29T03:37:48;40.88;;;27.98;;
63016;SDS011;50274;45.640;11.756;2023-12-29T03:40:13;41.47;;;26.55;;
63016;SDS011;50274;45.640;11.756;2023-12-29T03:42:42;45.22;;;28.00;;
63016;SDS011;50274;45.640;11.756;2023-12-29T03:45:10;43.78;;;27.00;;
63016;SDS011;50274;45.640;11.756;2023-12-29T03:47:38;44.00;;;27.10;;
63016;SDS011;50274;45.640;11.756;2023-12-29T03:50:04;42.22;;;26.25;;
63016;SDS011;50274;45.640;11.756;2023-12-29T03:52:30;45.33;;;27.73;;
63016;SDS011;50274;45.640;11.756;2023-12-29T03:54:56;40.20;;;27.07;;
63016;SDS011;50274;45.640;11.756;2023-12-29T03:57:26;46.20;;;31.55;;
63016;SDS011;50274;45.640;11.756;2023-12-29T03:59:54;44.53;;;28.65;;
63016;SDS011;50274;45.640;11.756;2023-12-29T04:02:23;46.63;;;29.52;;
63016;SDS011;50274;45.640;11.756;2023-12-29T04:04:52;46.33;;;29.35;;
63016;SDS011;50274;45.640;11.756;2023-12-29T04:07:22;44.10;;;30.00;;
63016;SDS011;50274;45.640;11.756;2023-12-29T04:09:50;42.25;;;29.00;;
63016;SDS011;50274;45.640;11.756;2023-12-29T04:12:23;41.42;;;27.27;;
63016;SDS011;50274;45.640;11.756;2023-12-29T04:14:51;45.50;;;29.15;;
63016;SDS011;50274;45.640;11.756;2023-12-29T04:17:19;41.97;;;26.23;;
63016;SDS011;50274;45.640;11.756;2023-12-29T04:19:47;40.87;;;27.07;;
63016;SDS011;50274;45.640;11.756;2023-12-29T04:22:15;43.92;;;27.80;;
63016;SDS011;50274;45.640;11.756;2023-12-29T04:24:41;39.30;;;25.27;;
63016;SDS011;50274;45.640;11.756;2023-12-29T04:27:09;40.03;;;26.77;;
63016;SDS011;50274;45.640;11.756;2023-12-29T04:29:38;38.53;;;24.33;;
63016;SDS011;50274;45.640;11.756;2023-12-29T04:32:08;38.03;;;25.77;;
63016;SDS011;50274;45.640;11.756;2023-12-29T04:34:37;41.10;;;26.02;;
63016;SDS011;50274;45.640;11.756;2023-12-29T04:37:05;38.90;;;25.63;;
63016;SDS011;50274;45.640;11.756;2023-12-29T04:39:31;43.05;;;26.35;;
63016;SDS011;50274;45.640;11.756;2023-12-29T04:41:57;35.77;;;23.13;;
63016;SDS011;50274;45.640;11.756;2023-12-29T04:44:25;35.80;;;25.00;;
63016;SDS011;50274;45.640;11.756;2023-12-29T04:46:51;38.08;;;25.08;;
63016;SDS011;50274;45.640;11.756;2023-12-29T04:49:17;37.40;;;23.47;;
63016;SDS011;50274;45.640;11.756;2023-12-29T04:51:50;38.53;;;24.70;;
63016;SDS011;50274;45.640;11.756;2023-12-29T04:54:16;37.47;;;24.48;;
63016;SDS011;50274;45.640;11.756;2023-12-29T04:56:47;38.15;;;23.75;;
63016;SDS011;50274;45.640;11.756;2023-12-29T04:59:12;36.83;;;23.60;;
63016;SDS011;50274;45.640;11.756;2023-12-29T05:01:41;40.13;;;24.55;;
63016;SDS011;50274;45.640;11.756;2023-12-29T05:04:09;41.50;;;24.05;;
63016;SDS011;50274;45.640;11.756;2023-12-29T05:06:37;42.67;;;25.45;;
63016;SDS011;50274;45.640;11.756;2023-12-29T05:09:07;39.03;;;24.03;;
63016;SDS011;50274;45.640;11.756;2023-12-29T05:11:33;40.72;;;25.10;;
63016;SDS011;50274;45.640;11.756;2023-12-29T05:13:59;38.20;;;24.52;;
63016;SDS011;50274;45.640;11.756;2023-12-29T05:16:25;38.63;;;24.37;;
63016;SDS011;50274;45.640;11.756;2023-12-29T05:18:53;36.63;;;22.90;;
63016;SDS011;50274;45.640;11.756;2023-12-29T05:21:23;31.48;;;21.25;;
63016;SDS011;50274;45.640;11.756;2023-12-29T05:23:51;37.75;;;23.85;;
63016;SDS011;50274;45.640;11.756;2023-12-29T05:26:19;35.27;;;23.20;;
63016;SDS011;50274;45.640;11.756;2023-12-29T05:28:47;38.20;;;25.00;;
63016;SDS011;50274;45.640;11.756;2023-12-29T05:31:13;32.03;;;21.27;;
63016;SDS011;50274;45.640;11.756;2023-12-29T05:33:41;33.55;;;22.80;;
63016;SDS011;50274;45.640;11.756;2023-12-29T05:36:10;34.47;;;23.37;;
63016;SDS011;50274;45.640;11.756;2023-12-29T05:38:38;34.10;;;21.33;;
63016;SDS011;50274;45.640;11.756;2023-12-29T05:41:08;35.95;;;22.02;;
63016;SDS011;50274;45.640;11.756;2023-12-29T05:43:45;32.58;;;22.20;;
63016;SDS011;50274;45.640;11.756;2023-12-29T05:46:16;30.88;;;21.48;;
63016;SDS011;50274;45.640;11.756;2023-12-29T05:48:46;39.53;;;24.10;;
63016;SDS011;50274;45.640;11.756;2023-12-29T05:51:14;33.92;;;22.98;;
63016;SDS011;50274;45.640;11.756;2023-12-29T05:53:42;32.53;;;21.05;;
63016;SDS011;50274;45.640;11.756;2023-12-29T05:56:13;34.33;;;21.75;;
63016;SDS011;50274;45.640;11.756;2023-12-29T05:58:45;33.30;;;20.63;;
63016;SDS011;50274;45.640;11.756;2023-12-29T06:01:17;30.27;;;20.57;;
63016;SDS011;50274;45.640;11.756;2023-12-29T06:03:45;33.00;;;21.88;;
63016;SDS011;50274;45.640;11.756;2023-12-29T06:06:14;33.33;;;22.00;;
63016;SDS011;50274;45.640;11.756;2023-12-29T06:08:47;30.25;;;20.08;;
63016;SDS011;50274;45.640;11.756;2023-12-29T06:11:16;32.47;;;20.08;;
63016;SDS011;50274;45.640;11.756;2023-12-29T06:13:47;30.87;;;20.93;;
63016;SDS011;50274;45.640;11.756;2023-12-29T06:16:21;36.70;;;21.73;;
63016;SDS011;50274;45.640;11.756;2023-12-29T06:18:50;30.70;;;19.83;;
63016;SDS011;50274;45.640;11.756;2023-12-29T06:21:18;32.45;;;21.33;;
63016;SDS011;50274;45.640;11.756;2023-12-29T06:23:46;33.28;;;19.88;;
63016;SDS011;50274;45.640;11.756;2023-12-29T06:26:17;33.47;;;20.43;;
63016;SDS011;50274;45.640;11.756;2023-12-29T06:28:45;33.92;;;21.35;;
63016;SDS011;50274;45.640;11.756;2023-12-29T06:31:12;32.75;;;20.90;;
63016;SDS011;50274;45.640;11.756;2023-12-29T06:33:41;28.35;;;18.98;;
63016;SDS011;50274;45.640;11.756;2023-12-29T06:36:08;34.25;;;20.58;;
63016;SDS011;50274;45.640;11.756;2023-12-29T06:38:37;28.00;;;18.83;;
63016;SDS011;50274;45.640;11.756;2023-12-29T06:41:05;28.15;;;18.55;;
63016;SDS011;50274;45.640;11.756;2023-12-29T06:43:31;26.27;;;18.23;;
63016;SDS011;50274;45.640;11.756;2023-12-29T06:45:57;27.60;;;18.23;;
63016;SDS011;50274;45.640;11.756;2023-12-29T06:48:25;29.33;;;17.33;;
63016;SDS011;50274;45.640;11.756;2023-12-29T06:50:56;30.15;;;18.08;;
63016;SDS011;50274;45.640;11.756;2023-12-29T06:53:24;26.30;;;17.35;;
63016;SDS011;50274;45.640;11.756;2023-12-29T06:55:52;29.13;;;18.47;;
63016;SDS011;50274;45.640;11.756;2023-12-29T06:58:20;32.63;;;18.38;;
63016;SDS011;50274;45.640;11.756;2023-12-29T07:00:46;31.88;;;17.60;;
63016;SDS011;50274;45.640;11.756;2023-12-29T07:03:16;29.90;;;18.15;;
63016;SDS011;50274;45.640;11.756;2023-12-29T07:05:44;29.73;;;16.30;;
63016;SDS011;50274;45.640;11.756;2023-12-29T07:08:12;30.20;;;17.80;;
63016;SDS011;50274;45.640;11.756;2023-12-29T07:10:41;25.38;;;16.88;;
63016;SDS011;50274;45.640;11.756;2023-12-29T07:13:09;26.63;;;16.90;;
63016;SDS011;50274;45.640;11.756;2023-12-29T07:15:35;29.33;;;16.67;;
63016;SDS011;50274;45.640;11.756;2023-12-29T07:18:04;29.33;;;17.17;;
63016;SDS011;50274;45.640;11.756;2023-12-29T07:20:32;28.42;;;17.02;;
63016;SDS011;50274;45.640;11.756;2023-12-29T07:22:58;28.08;;;16.50;;
63016;SDS011;50274;45.640;11.756;2023-12-29T07:25:32;28.58;;;18.65;;
63016;SDS011;50274;45.640;11.756;2023-12-29T07:28:01;34.33;;;19.15;;
63016;SDS011;50274;45.640;11.756;2023-12-29T07:30:29;30.77;;;18.97;;
63016;SDS011;50274;45.640;11.756;2023-12-29T07:32:54;33.58;;;19.63;;
63016;SDS011;50274;45.640;11.756;2023-12-29T07:35:22;38.83;;;22.73;;
63016;SDS011;50274;45.640;11.756;2023-12-29T07:37:51;35.45;;;21.85;;
63016;SDS011;50274;45.640;11.756;2023-12-29T07:40:17;40.87;;;23.00;;
63016;SDS011;50274;45.640;11.756;2023-12-29T07:42:43;31.25;;;19.40;;
63016;SDS011;50274;45.640;11.756;2023-12-29T07:45:17;34.38;;;19.67;;
63016;SDS011;50274;45.640;11.756;2023-12-29T07:47:46;30.15;;;18.75;;
63016;SDS011;50274;45.640;11.756;2023-12-29T07:50:12;29.13;;;18.20;;
63016;SDS011;50274;45.640;11.756;2023-12-29T07:52:43;28.53;;;17.90;;
63016;SDS011;50274;45.640;11.756;2023-12-29T07:55:14;28.52;;;17.67;;
63016;SDS011;50274;45.640;11.756;2023-12-29T07:57:43;27.98;;;17.45;;
63016;SDS011;50274;45.640;11.756;2023-12-29T08:00:11;28.60;;;17.08;;
63016;SDS011;50274;45.640;11.756;2023-12-29T08:02:42;28.63;;;16.52;;
63016;SDS011;50274;45.640;11.756;2023-12-29T08:05:10;31.13;;;17.17;;
63016;SDS011;50274;45.640;11.756;2023-12-29T08:07:36;30.75;;;17.55;;
63016;SDS011;50274;45.640;11.756;2023-12-29T08:10:05;29.17;;;17.98;;
63016;SDS011;50274;45.640;11.756;2023-12-29T08:12:32;28.75;;;17.42;;
63016;SDS011;50274;45.640;11.756;2023-12-29T08:14:59;31.58;;;18.23;;
63016;SDS011;50274;45.640;11.756;2023-12-29T08:17:25;38.97;;;19.37;;
63016;SDS011;50274;45.640;11.756;2023-12-29T08:19:51;38.50;;;19.77;;
63016;SDS011;50274;45.640;11.756;2023-12-29T08:22:19;32.78;;;19.58;;
63016;SDS011;50274;45.640;11.756;2023-12-29T08:24:45;30.38;;;19.83;;
63016;SDS011;50274;45.640;11.756;2023-12-29T08:27:13;38.67;;;22.13;;
63016;SDS011;50274;45.640;11.756;2023-12-29T08:29:40;34.35;;;20.75;;
63016;SDS011;50274;45.640;11.756;2023-12-29T08:32:07;35.03;;;19.92;;
63016;SDS011;50274;45.640;11.756;2023-12-29T08:34:32;39.17;;;23.02;;
63016;SDS011;50274;45.640;11.756;2023-12-29T08:37:03;43.30;;;24.53;;
63016;SDS011;50274;45.640;11.756;2023-12-29T08:39:29;37.75;;;23.50;;
63016;SDS011;50274;45.640;11.756;2023-12-29T08:41:55;44.88;;;25.50;;
63016;SDS011;50274;45.640;11.756;2023-12-29T08:44:21;41.15;;;24.80;;
63016;SDS011;50274;45.640;11.756;2023-12-29T08:46:46;42.17;;;23.87;;
63016;SDS011;50274;45.640;11.756;2023-12-29T08:49:12;41.72;;;23.38;;
63016;SDS011;50274;45.640;11.756;2023-12-29T08:51:38;37.30;;;24.47;;
63016;SDS011;50274;45.640;11.756;2023-12-29T08:54:04;42.03;;;26.48;;
63016;SDS011;50274;45.640;11.756;2023-12-29T08:56:30;46.03;;;27.90;;
63016;SDS011;50274;45.640;11.756;2023-12-29T08:58:56;38.03;;;25.07;;
63016;SDS011;50274;45.640;11.756;2023-12-29T09:01:21;42.58;;;26.05;;
63016;SDS011;50274;45.640;11.756;2023-12-29T09:03:47;48.25;;;27.63;;
63016;SDS011;50274;45.640;11.756;2023-12-29T09:06:13;44.27;;;26.73;;
63016;SDS011;50274;45.640;11.756;2023-12-29T09:08:39;47.05;;;27.80;;
63016;SDS011;50274;45.640;11.756;2023-12-29T09:11:05;45.13;;;27.02;;
63016;SDS011;50274;45.640;11.756;2023-12-29T09:13:31;51.90;;;29.33;;
63016;SDS011;50274;45.640;11.756;2023-12-29T09:15:58;48.53;;;27.23;;
63016;SDS011;50274;45.640;11.756;2023-12-29T09:18:24;47.70;;;25.55;;
63016;SDS011;50274;45.640;11.756;2023-12-29T09:20:50;48.87;;;26.13;;
63016;SDS011;50274;45.640;11.756;2023-12-29T09:23:16;45.55;;;26.65;;
63016;SDS011;50274;45.640;11.756;2023-12-29T09:25:42;44.88;;;25.92;;
63016;SDS011;50274;45.640;11.756;2023-12-29T09:28:09;49.33;;;28.48;;
63016;SDS011;50274;45.640;11.756;2023-12-29T09:30:35;50.17;;;26.43;;
63016;SDS011;50274;45.640;11.756;2023-12-29T09:33:02;48.92;;;27.73;;
63016;SDS011;50274;45.640;11.756;2023-12-29T09:35:28;45.45;;;26.27;;
63016;SDS011;50274;45.640;11.756;2023-12-29T09:37:54;49.17;;;25.30;;
63016;SDS011;50274;45.640;11.756;2023-12-29T09:40:19;47.53;;;25.92;;
63016;SDS011;50274;45.640;11.756;2023-12-29T09:42:46;45.70;;;25.83;;
63016;SDS011;50274;45.640;11.756;2023-12-29T09:45:13;44.00;;;25.73;;
63016;SDS011;50274;45.640;11.756;2023-12-29T09:47:40;45.53;;;24.40;;
63016;SDS011;50274;45.640;11.756;2023-12-29T09:50:10;40.80;;;24.55;;
63016;SDS011;50274;45.640;11.756;2023-12-29T09:52:40;42.05;;;24.70;;
63016;SDS011;50274;45.640;11.756;2023-12-29T09:55:11;38.90;;;24.98;;
63016;SDS011;50274;45.640;11.756;2023-12-29T09:57:42;42.85;;;23.92;;
63016;SDS011;50274;45.640;11.756;2023-12-29T10:00:14;44.27;;;23.77;;
63016;SDS011;50274;45.640;11.756;2023-12-29T10:02:44;38.13;;;23.00;;
63016;SDS011;50274;45.640;11.756;2023-12-29T10:05:10;69.32;;;31.73;;
63016;SDS011;50274;45.640;11.756;2023-12-29T10:07:40;58.70;;;29.45;;
63016;SDS011;50274;45.640;11.756;2023-12-29T10:10:14;60.13;;;30.83;;
63016;SDS011;50274;45.640;11.756;2023-12-29T10:12:46;54.17;;;27.63;;
63016;SDS011;50274;45.640;11.756;2023-12-29T10:21:14;40.55;;;24.05;;
63016;SDS011;50274;45.640;11.756;2023-12-29T10:23:54;43.03;;;23.17;;
63016;SDS011;50274;45.640;11.756;2023-12-29T10:26:30;35.87;;;21.77;;
63016;SDS011;50274;45.640;11.756;2023-12-29T10:28:59;32.70;;;20.35;;
63016;SDS011;50274;45.640;11.756;2023-12-29T10:31:30;36.38;;;21.63;;
63016;SDS011;50274;45.640;11.756;2023-12-29T10:36:56;33.50;;;19.80;;
63016;SDS011;50274;45.640;11.756;2023-12-29T10:39:24;33.47;;;19.37;;
63016;SDS011;50274;45.640;11.756;2023-12-29T10:44:36;28.85;;;18.08;;
63016;SDS011;50274;45.640;11.756;2023-12-29T10:47:11;30.80;;;19.05;;
63016;SDS011;50274;45.640;11.756;2023-12-29T10:49:39;34.50;;;19.90;;
63016;SDS011;50274;45.640;11.756;2023-12-29T10:52:11;29.57;;;18.20;;
63016;SDS011;50274;45.640;11.756;2023-12-29T10:54:46;32.38;;;19.50;;
63016;SDS011;50274;45.640;11.756;2023-12-29T10:57:14;30.38;;;18.48;;
63016;SDS011;50274;45.640;11.756;2023-12-29T10:59:42;35.38;;;21.15;;
63016;SDS011;50274;45.640;11.756;2023-12-29T11:02:19;32.13;;;19.45;;
63016;SDS011;50274;45.640;11.756;2023-12-29T11:04:45;32.90;;;20.00;;
63016;SDS011;50274;45.640;11.756;2023-12-29T11:07:11;31.08;;;19.48;;
63016;SDS011;50274;45.640;11.756;2023-12-29T11:09:38;29.05;;;16.80;;
63016;SDS011;50274;45.640;11.756;2023-12-29T11:12:06;30.93;;;18.50;;
63016;SDS011;50274;45.640;11.756;2023-12-29T11:14:34;31.23;;;18.23;;
63016;SDS011;50274;45.640;11.756;2023-12-29T11:17:10;29.50;;;17.30;;
63016;SDS011;50274;45.640;11.756;2023-12-29T11:19:44;28.42;;;16.88;;
63016;SDS011;50274;45.640;11.756;2023-12-29T11:22:16;28.85;;;17.95;;
63016;SDS011;50274;45.640;11.756;2023-12-29T11:24:50;29.13;;;17.30;;
63016;SDS011;50274;45.640;11.756;2023-12-29T11:27:18;31.75;;;17.33;;
63016;SDS011;50274;45.640;11.756;2023-12-29T11:29:48;30.83;;;18.25;;
63016;SDS011;50274;45.640;11.756;2023-12-29T11:33:01;28.75;;;17.13;;
63016;SDS011;50274;45.640;11.756;2023-12-29T11:35:13;27.75;;;17.02;;
63016;SDS011;50274;45.640;11.756;2023-12-29T11:43:44;26.08;;;16.40;;
63016;SDS011;50274;45.640;11.756;2023-12-29T11:49:11;27.50;;;16.27;;
63016;SDS011;50274;45.640;11.756;2023-12-29T11:51:44;26.33;;;15.75;;
63016;SDS011;50274;45.640;11.756;2023-12-29T11:54:22;33.15;;;17.95;;
63016;SDS011;50274;45.640;11.756;2023-12-29T11:56:54;33.03;;;18.17;;
63016;SDS011;50274;45.640;11.756;2023-12-29T11:59:23;31.40;;;18.63;;
63016;SDS011;50274;45.640;11.756;2023-12-29T12:01:51;28.35;;;17.20;;
63016;SDS011;50274;45.640;11.756;2023-12-29T12:04:34;36.17;;;17.65;;
63016;SDS011;50274;45.640;11.756;2023-12-29T12:07:15;33.15;;;17.33;;
63016;SDS011;50274;45.640;11.756;2023-12-29T12:10:44;28.85;;;17.27;;
63016;SDS011;50274;45.640;11.756;2023-12-29T12:12:52;27.87;;;16.33;;
63016;SDS011;50274;45.640;11.756;2023-12-29T12:17:54;29.52;;;17.40;;
63016;SDS011;50274;45.640;11.756;2023-12-29T12:20:21;27.73;;;16.70;;
63016;SDS011;50274;45.640;11.756;2023-12-29T12:22:49;31.58;;;17.50;;
63016;SDS011;50274;45.640;11.756;2023-12-29T12:25:26;31.47;;;16.83;;
63016;SDS011;50274;45.640;11.756;2023-12-29T12:27:55;26.55;;;16.77;;
63016;SDS011;50274;45.640;11.756;2023-12-29T12:30:22;27.05;;;15.38;;
63016;SDS011;50274;45.640;11.756;2023-12-29T12:32:58;24.92;;;15.93;;
63016;SDS011;50274;45.640;11.756;2023-12-29T12:35:27;26.55;;;15.70;;
63016;SDS011;50274;45.640;11.756;2023-12-29T12:41:08;26.35;;;15.15;;
63016;SDS011;50274;45.640;11.756;2023-12-29T12:43:40;30.35;;;17.20;;
63016;SDS011;50274;45.640;11.756;2023-12-29T12:46:17;29.67;;;16.92;;
63016;SDS011;50274;45.640;11.756;2023-12-29T12:48:45;27.42;;;16.25;;
63016;SDS011;50274;45.640;11.756;2023-12-29T12:51:17;27.57;;;15.17;;
63016;SDS011;50274;45.640;11.756;2023-12-29T12:53:47;27.83;;;16.85;;
63016;SDS011;50274;45.640;11.756;2023-12-29T12:56:16;29.55;;;16.85;;
63016;SDS011;50274;45.640;11.756;2023-12-29T12:58:45;28.80;;;16.27;;
63016;SDS011;50274;45.640;11.756;2023-12-29T13:01:13;27.05;;;15.88;;
63016;SDS011;50274;45.640;11.756;2023-12-29T13:03:40;26.47;;;15.23;;
63016;SDS011;50274;45.640;11.756;2023-12-29T13:06:10;28.00;;;17.02;;
63016;SDS011;50274;45.640;11.756;2023-12-29T13:08:41;30.08;;;16.83;;
63016;SDS011;50274;45.640;11.756;2023-12-29T13:11:09;28.10;;;16.63;;
63016;SDS011;50274;45.640;11.756;2023-12-29T13:13:42;24.20;;;15.45;;
63016;SDS011;50274;45.640;11.756;2023-12-29T13:16:10;26.33;;;16.47;;
63016;SDS011;50274;45.640;11.756;2023-12-29T13:18:42;28.45;;;16.63;;
63016;SDS011;50274;45.640;11.756;2023-12-29T13:21:10;25.85;;;15.70;;
63016;SDS011;50274;45.640;11.756;2023-12-29T13:23:37;26.60;;;15.85;;
63016;SDS011;50274;45.640;11.756;2023-12-29T13:26:09;28.58;;;16.77;;
63016;SDS011;50274;45.640;11.756;2023-12-29T13:28:36;30.20;;;18.70;;
63016;SDS011;50274;45.640;11.756;2023-12-29T13:31:03;31.42;;;17.33;;
63016;SDS011;50274;45.640;11.756;2023-12-29T13:36:05;29.02;;;16.58;;
63016;SDS011;50274;45.640;11.756;2023-12-29T13:38:45;30.90;;;16.20;;
63016;SDS011;50274;45.640;11.756;2023-12-29T13:41:21;27.40;;;16.37;;
63016;SDS011;50274;45.640;11.756;2023-12-29T13:43:55;26.67;;;16.45;;
63016;SDS011;50274;45.640;11.756;2023-12-29T13:46:24;24.60;;;15.65;;
63016;SDS011;50274;45.640;11.756;2023-12-29T13:48:50;25.40;;;15.30;;
63016;SDS011;50274;45.640;11.756;2023-12-29T13:51:24;23.60;;;15.48;;
63016;SDS011;50274;45.640;11.756;2023-12-29T13:53:59;27.43;;;16.83;;
63016;SDS011;50274;45.640;11.756;2023-12-29T13:56:26;28.02;;;16.55;;
63016;SDS011;50274;45.640;11.756;2023-12-29T13:58:52;26.45;;;15.48;;
63016;SDS011;50274;45.640;11.756;2023-12-29T14:01:20;26.10;;;15.60;;
63016;SDS011;50274;45.640;11.756;2023-12-29T14:03:46;24.40;;;14.27;;
63016;SDS011;50274;45.640;11.756;2023-12-29T14:06:20;22.92;;;14.38;;
63016;SDS011;50274;45.640;11.756;2023-12-29T14:08:51;27.23;;;16.17;;
63016;SDS011;50274;45.640;11.756;2023-12-29T14:11:20;25.23;;;14.77;;
63016;SDS011;50274;45.640;11.756;2023-12-29T14:13:48;25.75;;;15.75;;
63016;SDS011;50274;45.640;11.756;2023-12-29T14:16:16;24.53;;;14.73;;
63016;SDS011;50274;45.640;11.756;2023-12-29T14:21:26;25.65;;;15.55;;
63016;SDS011;50274;45.640;11.756;2023-12-29T14:24:26;23.88;;;14.27;;
63016;SDS011;50274;45.640;11.756;2023-12-29T14:29:20;26.43;;;15.50;;
63016;SDS011;50274;45.640;11.756;2023-12-29T14:31:47;31.73;;;16.38;;
63016;SDS011;50274;45.640;11.756;2023-12-29T14:34:15;26.52;;;14.98;;
63016;SDS011;50274;45.640;11.756;2023-12-29T14:36:46;24.23;;;14.55;;
63016;SDS011;50274;45.640;11.756;2023-12-29T14:39:14;26.90;;;15.48;;
63016;SDS011;50274;45.640;11.756;2023-12-29T14:41:43;24.73;;;15.00;;
63016;SDS011;50274;45.640;11.756;2023-12-29T14:44:13;27.88;;;16.73;;
63016;SDS011;50274;45.640;11.756;2023-12-29T14:46:40;26.02;;;15.27;;
63016;SDS011;50274;45.640;11.756;2023-12-29T14:49:11;23.95;;;14.52;;
63016;SDS011;50274;45.640;11.756;2023-12-29T14:51:39;27.55;;;14.57;;
63016;SDS011;50274;45.640;11.756;2023-12-29T14:54:10;27.87;;;18.17;;
63016;SDS011;50274;45.640;11.756;2023-12-29T14:56:38;25.58;;;16.73;;
63016;SDS011;50274;45.640;11.756;2023-12-29T14:59:09;29.38;;;17.55;;